Terminal Aerodrome Forecast
Issued by NWS

Current Version | Previous Version | Text Only | Print | Product List | Glossary On
Versions: 1 2 3 4 5 6 7 8 9 10 11 12 13 14 15 16 17 18 19 20 21
000
FTUS44 KCRP 301100 CCA
TAFALI
TAF COR
KALI 301141Z 3012/3112 VRB05KT 5SM BR SCT018 SCT250
      TEMPO 3012/3013 2SM BR BKN016
     FM301400 18009KT P6SM SCT035 SCT250
     FM302000 14016G22KT P6SM FEW060 SCT250
     FM310200 15012KT P6SM FEW018
     FM310900 17003KT P6SM BKN015=

USA.gov is the U.S. government's official web portal to all federal, state and local government web resources and services.